sensor_id;sensor_type;location;lat;lon;timestamp;P1;durP1;ratioP1;P2;durP2;ratioP2
33954;SDS011;20233;50.804;7.126;2022-12-10T00:01:33;50.17;;;26.55;;
33954;SDS011;20233;50.804;7.126;2022-12-10T00:04:00;47.97;;;24.33;;
33954;SDS011;20233;50.804;7.126;2022-12-10T00:06:29;41.83;;;23.60;;
33954;SDS011;20233;50.804;7.126;2022-12-10T00:08:59;41.73;;;22.67;;
33954;SDS011;20233;50.804;7.126;2022-12-10T00:11:28;38.78;;;23.20;;
33954;SDS011;20233;50.804;7.126;2022-12-10T00:13:54;44.58;;;23.17;;
33954;SDS011;20233;50.804;7.126;2022-12-10T00:16:22;43.75;;;23.73;;
33954;SDS011;20233;50.804;7.126;2022-12-10T00:18:50;48.10;;;23.75;;
33954;SDS011;20233;50.804;7.126;2022-12-10T00:21:19;50.35;;;25.25;;
33954;SDS011;20233;50.804;7.126;2022-12-10T00:23:47;47.22;;;24.90;;
33954;SDS011;20233;50.804;7.126;2022-12-10T00:26:18;48.58;;;24.92;;
33954;SDS011;20233;50.804;7.126;2022-12-10T00:28:53;42.17;;;23.63;;
33954;SDS011;20233;50.804;7.126;2022-12-10T00:31:32;49.13;;;25.13;;
33954;SDS011;20233;50.804;7.126;2022-12-10T00:34:00;45.75;;;24.75;;
33954;SDS011;20233;50.804;7.126;2022-12-10T00:36:29;46.20;;;25.10;;
33954;SDS011;20233;50.804;7.126;2022-12-10T00:38:57;45.03;;;26.65;;
33954;SDS011;20233;50.804;7.126;2022-12-10T00:41:24;48.40;;;26.17;;
33954;SDS011;20233;50.804;7.126;2022-12-10T00:43:51;48.88;;;26.55;;
33954;SDS011;20233;50.804;7.126;2022-12-10T00:46:17;44.30;;;24.98;;
33954;SDS011;20233;50.804;7.126;2022-12-10T00:48:44;48.25;;;24.45;;
33954;SDS011;20233;50.804;7.126;2022-12-10T00:51:18;48.90;;;24.58;;
33954;SDS011;20233;50.804;7.126;2022-12-10T00:53:47;50.80;;;27.63;;
33954;SDS011;20233;50.804;7.126;2022-12-10T00:56:16;48.15;;;25.02;;
33954;SDS011;20233;50.804;7.126;2022-12-10T00:58:44;45.85;;;25.13;;
33954;SDS011;20233;50.804;7.126;2022-12-10T01:01:13;42.38;;;23.80;;
33954;SDS011;20233;50.804;7.126;2022-12-10T01:03:43;44.38;;;25.42;;
33954;SDS011;20233;50.804;7.126;2022-12-10T01:06:15;46.35;;;23.58;;
33954;SDS011;20233;50.804;7.126;2022-12-10T01:08:41;49.80;;;24.95;;
33954;SDS011;20233;50.804;7.126;2022-12-10T01:11:09;49.60;;;23.45;;
33954;SDS011;20233;50.804;7.126;2022-12-10T01:13:37;45.80;;;23.63;;
33954;SDS011;20233;50.804;7.126;2022-12-10T01:16:05;46.08;;;25.52;;
33954;SDS011;20233;50.804;7.126;2022-12-10T01:18:33;45.22;;;23.15;;
33954;SDS011;20233;50.804;7.126;2022-12-10T01:21:03;43.95;;;23.77;;
33954;SDS011;20233;50.804;7.126;2022-12-10T01:23:34;45.25;;;23.27;;
33954;SDS011;20233;50.804;7.126;2022-12-10T01:26:03;43.03;;;22.67;;
33954;SDS011;20233;50.804;7.126;2022-12-10T01:28:32;42.95;;;23.17;;
33954;SDS011;20233;50.804;7.126;2022-12-10T01:31:01;43.67;;;23.85;;
33954;SDS011;20233;50.804;7.126;2022-12-10T01:33:32;48.35;;;23.98;;
33954;SDS011;20233;50.804;7.126;2022-12-10T01:36:17;46.88;;;23.95;;
33954;SDS011;20233;50.804;7.126;2022-12-10T01:38:49;44.17;;;23.10;;
33954;SDS011;20233;50.804;7.126;2022-12-10T01:41:17;45.35;;;24.60;;
33954;SDS011;20233;50.804;7.126;2022-12-10T01:46:39;44.65;;;23.75;;
33954;SDS011;20233;50.804;7.126;2022-12-10T01:49:07;37.67;;;22.27;;
33954;SDS011;20233;50.804;7.126;2022-12-10T01:51:36;43.85;;;22.50;;
33954;SDS011;20233;50.804;7.126;2022-12-10T01:54:06;38.50;;;22.00;;
33954;SDS011;20233;50.804;7.126;2022-12-10T01:56:38;38.08;;;21.95;;
33954;SDS011;20233;50.804;7.126;2022-12-10T01:59:06;35.05;;;20.90;;
33954;SDS011;20233;50.804;7.126;2022-12-10T02:01:45;34.42;;;20.38;;
33954;SDS011;20233;50.804;7.126;2022-12-10T02:04:32;38.03;;;20.30;;
33954;SDS011;20233;50.804;7.126;2022-12-10T02:07:13;34.50;;;19.58;;
33954;SDS011;20233;50.804;7.126;2022-12-10T02:15:08;33.08;;;18.30;;
33954;SDS011;20233;50.804;7.126;2022-12-10T02:17:45;39.83;;;18.77;;
33954;SDS011;20233;50.804;7.126;2022-12-10T02:20:20;34.38;;;20.00;;
33954;SDS011;20233;50.804;7.126;2022-12-10T02:23:01;38.95;;;20.83;;
33954;SDS011;20233;50.804;7.126;2022-12-10T02:25:58;37.38;;;20.42;;
33954;SDS011;20233;50.804;7.126;2022-12-10T02:31:23;36.85;;;20.45;;
33954;SDS011;20233;50.804;7.126;2022-12-10T02:33:53;32.28;;;17.70;;
33954;SDS011;20233;50.804;7.126;2022-12-10T02:36:23;36.70;;;20.08;;
33954;SDS011;20233;50.804;7.126;2022-12-10T02:38:52;37.22;;;20.30;;
33954;SDS011;20233;50.804;7.126;2022-12-10T02:41:23;38.50;;;21.13;;
33954;SDS011;20233;50.804;7.126;2022-12-10T02:43:53;36.15;;;19.65;;
33954;SDS011;20233;50.804;7.126;2022-12-10T02:46:21;35.97;;;18.90;;
33954;SDS011;20233;50.804;7.126;2022-12-10T02:51:18;34.92;;;19.30;;
33954;SDS011;20233;50.804;7.126;2022-12-10T02:53:44;36.65;;;20.50;;
33954;SDS011;20233;50.804;7.126;2022-12-10T03:01:46;34.22;;;18.35;;
33954;SDS011;20233;50.804;7.126;2022-12-10T03:04:39;40.08;;;20.67;;
33954;SDS011;20233;50.804;7.126;2022-12-10T03:07:16;39.47;;;20.17;;
33954;SDS011;20233;50.804;7.126;2022-12-10T03:09:53;39.88;;;20.17;;
33954;SDS011;20233;50.804;7.126;2022-12-10T03:12:28;35.40;;;19.85;;
33954;SDS011;20233;50.804;7.126;2022-12-10T03:15:08;36.10;;;20.58;;
33954;SDS011;20233;50.804;7.126;2022-12-10T03:17:37;35.00;;;18.60;;
33954;SDS011;20233;50.804;7.126;2022-12-10T03:20:06;39.35;;;20.58;;
33954;SDS011;20233;50.804;7.126;2022-12-10T03:22:37;36.60;;;19.90;;
33954;SDS011;20233;50.804;7.126;2022-12-10T03:25:06;35.42;;;20.13;;
33954;SDS011;20233;50.804;7.126;2022-12-10T03:27:35;34.63;;;19.60;;
33954;SDS011;20233;50.804;7.126;2022-12-10T03:30:04;35.78;;;19.60;;
33954;SDS011;20233;50.804;7.126;2022-12-10T03:32:31;32.90;;;19.17;;
33954;SDS011;20233;50.804;7.126;2022-12-10T03:34:58;38.42;;;20.15;;
33954;SDS011;20233;50.804;7.126;2022-12-10T03:37:26;35.63;;;20.52;;
33954;SDS011;20233;50.804;7.126;2022-12-10T03:39:54;38.33;;;21.10;;
33954;SDS011;20233;50.804;7.126;2022-12-10T03:42:22;38.70;;;21.83;;
33954;SDS011;20233;50.804;7.126;2022-12-10T03:44:52;42.05;;;21.40;;
33954;SDS011;20233;50.804;7.126;2022-12-10T03:47:18;41.53;;;21.55;;
33954;SDS011;20233;50.804;7.126;2022-12-10T03:49:45;35.80;;;19.98;;
33954;SDS011;20233;50.804;7.126;2022-12-10T03:52:11;37.17;;;21.35;;
33954;SDS011;20233;50.804;7.126;2022-12-10T03:54:37;39.75;;;20.52;;
33954;SDS011;20233;50.804;7.126;2022-12-10T03:57:04;37.28;;;20.77;;
33954;SDS011;20233;50.804;7.126;2022-12-10T03:59:30;38.40;;;20.58;;
33954;SDS011;20233;50.804;7.126;2022-12-10T04:01:56;40.97;;;21.92;;
33954;SDS011;20233;50.804;7.126;2022-12-10T04:04:23;35.97;;;20.58;;
33954;SDS011;20233;50.804;7.126;2022-12-10T04:06:49;38.28;;;20.63;;
33954;SDS011;20233;50.804;7.126;2022-12-10T04:09:15;34.40;;;19.08;;
33954;SDS011;20233;50.804;7.126;2022-12-10T04:11:42;38.25;;;21.60;;
33954;SDS011;20233;50.804;7.126;2022-12-10T04:14:10;40.38;;;20.92;;
33954;SDS011;20233;50.804;7.126;2022-12-10T04:16:56;35.72;;;20.10;;
33954;SDS011;20233;50.804;7.126;2022-12-10T04:19:22;38.53;;;20.38;;
33954;SDS011;20233;50.804;7.126;2022-12-10T04:21:48;38.97;;;20.15;;
33954;SDS011;20233;50.804;7.126;2022-12-10T04:24:34;38.13;;;20.13;;
33954;SDS011;20233;50.804;7.126;2022-12-10T04:27:24;42.13;;;20.55;;
33954;SDS011;20233;50.804;7.126;2022-12-10T04:29:52;41.13;;;21.00;;
33954;SDS011;20233;50.804;7.126;2022-12-10T04:32:19;41.50;;;20.65;;
33954;SDS011;20233;50.804;7.126;2022-12-10T04:34:47;37.92;;;20.88;;
33954;SDS011;20233;50.804;7.126;2022-12-10T04:37:14;34.72;;;21.23;;
33954;SDS011;20233;50.804;7.126;2022-12-10T04:39:40;41.42;;;22.73;;
33954;SDS011;20233;50.804;7.126;2022-12-10T04:42:07;44.90;;;22.75;;
33954;SDS011;20233;50.804;7.126;2022-12-10T04:44:34;42.05;;;21.95;;
33954;SDS011;20233;50.804;7.126;2022-12-10T04:47:00;38.95;;;22.33;;
33954;SDS011;20233;50.804;7.126;2022-12-10T04:49:28;42.70;;;22.27;;
33954;SDS011;20233;50.804;7.126;2022-12-10T04:51:54;40.95;;;22.83;;
33954;SDS011;20233;50.804;7.126;2022-12-10T04:54:20;38.60;;;20.85;;
33954;SDS011;20233;50.804;7.126;2022-12-10T04:56:46;42.72;;;22.77;;
33954;SDS011;20233;50.804;7.126;2022-12-10T04:59:13;42.42;;;21.95;;
33954;SDS011;20233;50.804;7.126;2022-12-10T05:01:39;42.75;;;23.60;;
33954;SDS011;20233;50.804;7.126;2022-12-10T05:04:07;43.33;;;22.85;;
33954;SDS011;20233;50.804;7.126;2022-12-10T05:06:36;39.10;;;21.80;;
33954;SDS011;20233;50.804;7.126;2022-12-10T05:09:03;41.58;;;22.30;;
33954;SDS011;20233;50.804;7.126;2022-12-10T05:11:32;43.92;;;22.10;;
33954;SDS011;20233;50.804;7.126;2022-12-10T05:14:00;41.00;;;21.33;;
33954;SDS011;20233;50.804;7.126;2022-12-10T05:16:26;40.47;;;22.20;;
33954;SDS011;20233;50.804;7.126;2022-12-10T05:18:56;41.15;;;21.17;;
33954;SDS011;20233;50.804;7.126;2022-12-10T05:21:24;45.00;;;22.88;;
33954;SDS011;20233;50.804;7.126;2022-12-10T05:24:15;38.67;;;19.33;;
33954;SDS011;20233;50.804;7.126;2022-12-10T05:26:42;40.50;;;19.85;;
33954;SDS011;20233;50.804;7.126;2022-12-10T05:29:09;42.20;;;19.98;;
33954;SDS011;20233;50.804;7.126;2022-12-10T05:31:37;42.78;;;21.38;;
33954;SDS011;20233;50.804;7.126;2022-12-10T05:34:03;42.53;;;20.40;;
33954;SDS011;20233;50.804;7.126;2022-12-10T05:36:30;40.63;;;21.13;;
33954;SDS011;20233;50.804;7.126;2022-12-10T05:38:58;42.20;;;21.00;;
33954;SDS011;20233;50.804;7.126;2022-12-10T05:41:25;38.17;;;20.15;;
33954;SDS011;20233;50.804;7.126;2022-12-10T05:43:54;42.22;;;21.90;;
33954;SDS011;20233;50.804;7.126;2022-12-10T05:46:22;40.50;;;21.45;;
33954;SDS011;20233;50.804;7.126;2022-12-10T05:48:49;45.15;;;21.45;;
33954;SDS011;20233;50.804;7.126;2022-12-10T05:51:17;41.90;;;22.08;;
33954;SDS011;20233;50.804;7.126;2022-12-10T05:53:45;46.00;;;20.88;;
33954;SDS011;20233;50.804;7.126;2022-12-10T05:56:12;44.13;;;22.48;;
33954;SDS011;20233;50.804;7.126;2022-12-10T05:58:41;41.22;;;19.35;;
33954;SDS011;20233;50.804;7.126;2022-12-10T06:01:10;41.97;;;20.27;;
33954;SDS011;20233;50.804;7.126;2022-12-10T06:03:40;40.63;;;19.85;;
33954;SDS011;20233;50.804;7.126;2022-12-10T06:06:07;41.03;;;20.83;;
33954;SDS011;20233;50.804;7.126;2022-12-10T06:08:37;42.58;;;20.27;;
33954;SDS011;20233;50.804;7.126;2022-12-10T06:11:05;40.17;;;21.38;;
33954;SDS011;20233;50.804;7.126;2022-12-10T06:13:34;37.15;;;19.63;;
33954;SDS011;20233;50.804;7.126;2022-12-10T06:16:04;42.00;;;20.95;;
33954;SDS011;20233;50.804;7.126;2022-12-10T06:18:32;43.17;;;21.55;;
33954;SDS011;20233;50.804;7.126;2022-12-10T06:20:58;38.38;;;19.75;;
33954;SDS011;20233;50.804;7.126;2022-12-10T06:23:29;38.90;;;20.10;;
33954;SDS011;20233;50.804;7.126;2022-12-10T06:25:55;39.33;;;20.75;;
33954;SDS011;20233;50.804;7.126;2022-12-10T06:28:21;37.65;;;20.00;;
33954;SDS011;20233;50.804;7.126;2022-12-10T06:30:47;39.65;;;20.30;;
33954;SDS011;20233;50.804;7.126;2022-12-10T06:33:13;39.53;;;20.27;;
33954;SDS011;20233;50.804;7.126;2022-12-10T06:35:39;38.88;;;19.45;;
33954;SDS011;20233;50.804;7.126;2022-12-10T06:38:06;41.63;;;20.25;;
33954;SDS011;20233;50.804;7.126;2022-12-10T06:40:32;41.80;;;20.10;;
33954;SDS011;20233;50.804;7.126;2022-12-10T06:42:59;38.72;;;19.95;;
33954;SDS011;20233;50.804;7.126;2022-12-10T06:45:25;41.65;;;19.88;;
33954;SDS011;20233;50.804;7.126;2022-12-10T06:47:52;44.03;;;20.70;;
33954;SDS011;20233;50.804;7.126;2022-12-10T06:50:18;41.20;;;20.02;;
33954;SDS011;20233;50.804;7.126;2022-12-10T06:52:44;36.97;;;18.88;;
33954;SDS011;20233;50.804;7.126;2022-12-10T06:55:10;37.63;;;20.08;;
33954;SDS011;20233;50.804;7.126;2022-12-10T06:57:36;40.25;;;19.67;;
33954;SDS011;20233;50.804;7.126;2022-12-10T07:00:04;36.83;;;19.42;;
33954;SDS011;20233;50.804;7.126;2022-12-10T07:02:31;38.15;;;19.45;;
33954;SDS011;20233;50.804;7.126;2022-12-10T07:04:58;37.13;;;19.73;;
33954;SDS011;20233;50.804;7.126;2022-12-10T07:07:24;42.22;;;21.23;;
33954;SDS011;20233;50.804;7.126;2022-12-10T07:09:51;42.95;;;21.50;;
33954;SDS011;20233;50.804;7.126;2022-12-10T07:12:17;38.28;;;19.90;;
33954;SDS011;20233;50.804;7.126;2022-12-10T07:14:43;44.00;;;22.63;;
33954;SDS011;20233;50.804;7.126;2022-12-10T07:17:12;41.83;;;20.50;;
33954;SDS011;20233;50.804;7.126;2022-12-10T07:19:38;42.92;;;21.15;;
33954;SDS011;20233;50.804;7.126;2022-12-10T07:22:05;36.63;;;20.08;;
33954;SDS011;20233;50.804;7.126;2022-12-10T07:24:32;40.15;;;21.15;;
33954;SDS011;20233;50.804;7.126;2022-12-10T07:26:58;40.65;;;20.17;;
33954;SDS011;20233;50.804;7.126;2022-12-10T07:29:25;39.80;;;20.80;;
33954;SDS011;20233;50.804;7.126;2022-12-10T07:31:51;44.97;;;21.55;;
33954;SDS011;20233;50.804;7.126;2022-12-10T07:34:19;41.20;;;19.75;;
33954;SDS011;20233;50.804;7.126;2022-12-10T07:36:45;40.88;;;19.85;;
33954;SDS011;20233;50.804;7.126;2022-12-10T07:39:12;41.88;;;20.83;;
33954;SDS011;20233;50.804;7.126;2022-12-10T07:41:50;41.88;;;22.25;;
33954;SDS011;20233;50.804;7.126;2022-12-10T07:44:18;41.42;;;21.45;;
33954;SDS011;20233;50.804;7.126;2022-12-10T07:46:50;36.50;;;19.52;;
33954;SDS011;20233;50.804;7.126;2022-12-10T07:49:18;34.72;;;19.38;;
33954;SDS011;20233;50.804;7.126;2022-12-10T07:51:48;37.55;;;19.55;;
33954;SDS011;20233;50.804;7.126;2022-12-10T07:54:15;39.28;;;20.33;;
33954;SDS011;20233;50.804;7.126;2022-12-10T07:56:43;35.72;;;20.10;;
33954;SDS011;20233;50.804;7.126;2022-12-10T07:59:10;41.42;;;20.88;;
33954;SDS011;20233;50.804;7.126;2022-12-10T08:01:38;38.13;;;20.75;;
33954;SDS011;20233;50.804;7.126;2022-12-10T08:04:05;39.72;;;21.20;;
33954;SDS011;20233;50.804;7.126;2022-12-10T08:06:32;40.40;;;20.25;;
33954;SDS011;20233;50.804;7.126;2022-12-10T08:09:00;38.53;;;21.27;;
33954;SDS011;20233;50.804;7.126;2022-12-10T08:11:27;41.67;;;21.02;;
33954;SDS011;20233;50.804;7.126;2022-12-10T08:13:58;39.10;;;20.38;;
33954;SDS011;20233;50.804;7.126;2022-12-10T08:16:25;36.35;;;20.48;;
33954;SDS011;20233;50.804;7.126;2022-12-10T08:18:54;41.08;;;22.45;;
33954;SDS011;20233;50.804;7.126;2022-12-10T08:21:22;38.28;;;20.92;;
33954;SDS011;20233;50.804;7.126;2022-12-10T08:23:51;39.20;;;20.33;;
33954;SDS011;20233;50.804;7.126;2022-12-10T08:26:20;39.42;;;21.10;;
33954;SDS011;20233;50.804;7.126;2022-12-10T08:28:49;40.45;;;20.65;;
33954;SDS011;20233;50.804;7.126;2022-12-10T08:31:17;36.80;;;20.70;;
33954;SDS011;20233;50.804;7.126;2022-12-10T08:33:43;36.15;;;20.13;;
33954;SDS011;20233;50.804;7.126;2022-12-10T08:36:12;37.83;;;20.55;;
33954;SDS011;20233;50.804;7.126;2022-12-10T08:38:39;40.08;;;21.85;;
33954;SDS011;20233;50.804;7.126;2022-12-10T08:41:10;38.92;;;21.52;;
33954;SDS011;20233;50.804;7.126;2022-12-10T08:43:43;34.50;;;19.75;;
33954;SDS011;20233;50.804;7.126;2022-12-10T08:46:11;38.65;;;20.70;;
33954;SDS011;20233;50.804;7.126;2022-12-10T08:48:40;36.72;;;20.10;;
33954;SDS011;20233;50.804;7.126;2022-12-10T08:51:07;34.78;;;19.83;;
33954;SDS011;20233;50.804;7.126;2022-12-10T08:53:36;33.95;;;19.83;;
33954;SDS011;20233;50.804;7.126;2022-12-10T08:56:02;35.33;;;21.00;;
33954;SDS011;20233;50.804;7.126;2022-12-10T08:58:29;40.58;;;21.20;;
33954;SDS011;20233;50.804;7.126;2022-12-10T09:00:56;35.80;;;20.95;;
33954;SDS011;20233;50.804;7.126;2022-12-10T09:03:22;36.00;;;21.13;;
33954;SDS011;20233;50.804;7.126;2022-12-10T09:05:49;41.58;;;21.25;;
33954;SDS011;20233;50.804;7.126;2022-12-10T09:08:15;38.85;;;22.17;;
33954;SDS011;20233;50.804;7.126;2022-12-10T09:10:41;42.20;;;22.48;;
33954;SDS011;20233;50.804;7.126;2022-12-10T09:13:08;39.10;;;22.75;;
33954;SDS011;20233;50.804;7.126;2022-12-10T09:15:36;40.30;;;22.55;;
33954;SDS011;20233;50.804;7.126;2022-12-10T09:18:03;38.53;;;20.95;;
33954;SDS011;20233;50.804;7.126;2022-12-10T09:20:29;39.92;;;22.08;;
33954;SDS011;20233;50.804;7.126;2022-12-10T09:22:56;37.92;;;22.33;;
33954;SDS011;20233;50.804;7.126;2022-12-10T09:25:22;40.92;;;23.23;;
33954;SDS011;20233;50.804;7.126;2022-12-10T09:27:49;41.30;;;22.75;;
33954;SDS011;20233;50.804;7.126;2022-12-10T09:30:15;41.03;;;22.23;;
33954;SDS011;20233;50.804;7.126;2022-12-10T09:32:43;40.17;;;23.30;;
33954;SDS011;20233;50.804;7.126;2022-12-10T09:35:09;40.80;;;22.75;;
33954;SDS011;20233;50.804;7.126;2022-12-10T09:37:38;41.10;;;23.25;;
33954;SDS011;20233;50.804;7.126;2022-12-10T09:40:05;42.67;;;23.55;;
33954;SDS011;20233;50.804;7.126;2022-12-10T09:42:42;43.47;;;22.35;;
33954;SDS011;20233;50.804;7.126;2022-12-10T09:53:13;41.53;;;23.13;;
33954;SDS011;20233;50.804;7.126;2022-12-10T09:55:45;39.75;;;22.17;;
33954;SDS011;20233;50.804;7.126;2022-12-10T09:58:14;35.83;;;21.08;;
33954;SDS011;20233;50.804;7.126;2022-12-10T10:00:47;35.15;;;19.45;;
33954;SDS011;20233;50.804;7.126;2022-12-10T10:03:17;36.75;;;21.02;;
33954;SDS011;20233;50.804;7.126;2022-12-10T10:05:49;42.25;;;21.73;;
33954;SDS011;20233;50.804;7.126;2022-12-10T10:10:52;39.30;;;21.60;;
33954;SDS011;20233;50.804;7.126;2022-12-10T10:13:38;35.58;;;21.00;;
33954;SDS011;20233;50.804;7.126;2022-12-10T10:19:00;31.25;;;18.05;;
33954;SDS011;20233;50.804;7.126;2022-12-10T10:21:30;34.25;;;18.73;;
33954;SDS011;20233;50.804;7.126;2022-12-10T10:24:04;34.00;;;18.08;;
33954;SDS011;20233;50.804;7.126;2022-12-10T10:26:32;36.58;;;18.60;;
33954;SDS011;20233;50.804;7.126;2022-12-10T10:29:10;32.83;;;18.30;;
33954;SDS011;20233;50.804;7.126;2022-12-10T10:31:39;29.85;;;16.67;;
33954;SDS011;20233;50.804;7.126;2022-12-10T10:34:18;30.52;;;17.73;;
33954;SDS011;20233;50.804;7.126;2022-12-10T10:36:46;29.90;;;16.65;;
33954;SDS011;20233;50.804;7.126;2022-12-10T10:41:50;34.88;;;18.90;;
33954;SDS011;20233;50.804;7.126;2022-12-10T10:44:19;33.30;;;16.73;;
33954;SDS011;20233;50.804;7.126;2022-12-10T10:46:48;33.53;;;17.40;;
33954;SDS011;20233;50.804;7.126;2022-12-10T10:49:24;37.25;;;17.50;;
33954;SDS011;20233;50.804;7.126;2022-12-10T10:51:53;33.08;;;18.77;;
33954;SDS011;20233;50.804;7.126;2022-12-10T10:54:37;33.70;;;18.60;;
33954;SDS011;20233;50.804;7.126;2022-12-10T10:57:13;31.47;;;18.13;;
33954;SDS011;20233;50.804;7.126;2022-12-10T10:59:45;37.85;;;19.33;;
33954;SDS011;20233;50.804;7.126;2022-12-10T11:04:48;34.75;;;18.63;;
33954;SDS011;20233;50.804;7.126;2022-12-10T11:07:32;34.92;;;18.75;;
33954;SDS011;20233;50.804;7.126;2022-12-10T11:10:01;34.30;;;18.30;;
33954;SDS011;20233;50.804;7.126;2022-12-10T11:12:53;33.60;;;19.02;;
33954;SDS011;20233;50.804;7.126;2022-12-10T11:18:22;35.35;;;18.17;;
33954;SDS011;20233;50.804;7.126;2022-12-10T11:20:59;37.67;;;18.85;;
33954;SDS011;20233;50.804;7.126;2022-12-10T11:23:30;45.50;;;22.45;;
33954;SDS011;20233;50.804;7.126;2022-12-10T11:32:38;36.38;;;19.70;;
33954;SDS011;20233;50.804;7.126;2022-12-10T11:34:57;38.33;;;20.00;;
33954;SDS011;20233;50.804;7.126;2022-12-10T11:37:29;39.85;;;21.95;;
33954;SDS011;20233;50.804;7.126;2022-12-10T11:40:14;36.25;;;20.20;;
33954;SDS011;20233;50.804;7.126;2022-12-10T11:57:49;41.72;;;22.45;;
33954;SDS011;20233;50.804;7.126;2022-12-10T12:00:39;45.17;;;22.13;;
33954;SDS011;20233;50.804;7.126;2022-12-10T12:12:02;40.63;;;21.77;;
33954;SDS011;20233;50.804;7.126;2022-12-10T12:17:45;44.83;;;22.05;;
33954;SDS011;20233;50.804;7.126;2022-12-10T12:20:22;42.25;;;22.48;;
33954;SDS011;20233;50.804;7.126;2022-12-10T12:23:12;41.70;;;21.00;;
33954;SDS011;20233;50.804;7.126;2022-12-10T12:25:46;44.38;;;22.90;;
33954;SDS011;20233;50.804;7.126;2022-12-10T12:31:09;45.03;;;21.58;;
33954;SDS011;20233;50.804;7.126;2022-12-10T12:33:47;40.28;;;21.67;;
33954;SDS011;20233;50.804;7.126;2022-12-10T12:36:26;43.88;;;23.13;;
33954;SDS011;20233;50.804;7.126;2022-12-10T12:44:31;42.65;;;21.42;;
33954;SDS011;20233;50.804;7.126;2022-12-10T12:53:09;42.53;;;22.88;;
33954;SDS011;20233;50.804;7.126;2022-12-10T13:01:27;42.92;;;22.77;;
33954;SDS011;20233;50.804;7.126;2022-12-10T13:03:59;49.13;;;23.55;;
33954;SDS011;20233;50.804;7.126;2022-12-10T13:06:28;46.50;;;22.65;;
33954;SDS011;20233;50.804;7.126;2022-12-10T13:11:38;48.63;;;22.65;;
33954;SDS011;20233;50.804;7.126;2022-12-10T13:24:25;45.08;;;22.38;;
33954;SDS011;20233;50.804;7.126;2022-12-10T13:32:21;40.50;;;20.70;;
33954;SDS011;20233;50.804;7.126;2022-12-10T13:37:35;43.78;;;21.83;;
33954;SDS011;20233;50.804;7.126;2022-12-10T13:42:40;43.97;;;22.30;;
33954;SDS011;20233;50.804;7.126;2022-12-10T13:45:30;46.75;;;22.25;;
33954;SDS011;20233;50.804;7.126;2022-12-10T13:53:48;39.65;;;19.45;;
33954;SDS011;20233;50.804;7.126;2022-12-10T13:56:22;42.85;;;21.17;;
33954;SDS011;20233;50.804;7.126;2022-12-10T13:58:56;40.70;;;22.23;;
33954;SDS011;20233;50.804;7.126;2022-12-10T14:02:10;37.58;;;20.02;;
33954;SDS011;20233;50.804;7.126;2022-12-10T14:04:44;41.53;;;20.58;;
33954;SDS011;20233;50.804;7.126;2022-12-10T14:07:23;38.55;;;20.92;;
33954;SDS011;20233;50.804;7.126;2022-12-10T14:09:52;48.33;;;24.20;;
33954;SDS011;20233;50.804;7.126;2022-12-10T14:12:24;43.17;;;22.98;;
33954;SDS011;20233;50.804;7.126;2022-12-10T14:15:04;45.38;;;23.67;;
33954;SDS011;20233;50.804;7.126;2022-12-10T14:17:34;42.53;;;21.95;;
33954;SDS011;20233;50.804;7.126;2022-12-10T14:20:04;45.22;;;22.83;;
33954;SDS011;20233;50.804;7.126;2022-12-10T14:22:34;51.28;;;22.40;;
33954;SDS011;20233;50.804;7.126;2022-12-10T14:25:04;42.22;;;21.70;;
33954;SDS011;20233;50.804;7.126;2022-12-10T14:27:37;46.00;;;24.77;;
33954;SDS011;20233;50.804;7.126;2022-12-10T14:30:06;42.70;;;22.15;;
33954;SDS011;20233;50.804;7.126;2022-12-10T14:32:48;46.33;;;23.65;;
33954;SDS011;20233;50.804;7.126;2022-12-10T14:35:16;41.28;;;21.85;;
33954;SDS011;20233;50.804;7.126;2022-12-10T14:37:46;45.47;;;24.27;;
33954;SDS011;20233;50.804;7.126;2022-12-10T14:40:38;43.08;;;23.20;;
33954;SDS011;20233;50.804;7.126;2022-12-10T14:43:07;48.75;;;22.90;;
33954;SDS011;20233;50.804;7.126;2022-12-10T14:45:48;47.40;;;25.33;;
33954;SDS011;20233;50.804;7.126;2022-12-10T14:48:18;46.33;;;23.98;;
33954;SDS011;20233;50.804;7.126;2022-12-10T14:50:45;43.22;;;22.95;;
33954;SDS011;20233;50.804;7.126;2022-12-10T14:53:14;45.83;;;23.70;;
33954;SDS011;20233;50.804;7.126;2022-12-10T14:55:43;44.88;;;24.08;;
33954;SDS011;20233;50.804;7.126;2022-12-10T14:58:16;47.88;;;24.60;;
33954;SDS011;20233;50.804;7.126;2022-12-10T15:01:03;53.15;;;25.75;;
33954;SDS011;20233;50.804;7.126;2022-12-10T15:03:34;45.28;;;22.95;;
33954;SDS011;20233;50.804;7.126;2022-12-10T15:06:08;41.63;;;22.33;;
33954;SDS011;20233;50.804;7.126;2022-12-10T15:08:37;42.85;;;24.65;;
33954;SDS011;20233;50.804;7.126;2022-12-10T15:11:04;53.33;;;24.75;;
33954;SDS011;20233;50.804;7.126;2022-12-10T15:13:37;46.63;;;24.98;;
33954;SDS011;20233;50.804;7.126;2022-12-10T15:16:16;43.42;;;23.25;;
33954;SDS011;20233;50.804;7.126;2022-12-10T15:18:53;48.80;;;26.00;;
33954;SDS011;20233;50.804;7.126;2022-12-10T15:21:23;47.72;;;24.45;;
33954;SDS011;20233;50.804;7.126;2022-12-10T15:23:50;46.25;;;26.02;;
33954;SDS011;20233;50.804;7.126;2022-12-10T15:26:33;44.00;;;23.75;;
33954;SDS011;20233;50.804;7.126;2022-12-10T15:31:47;42.85;;;24.00;;
33954;SDS011;20233;50.804;7.126;2022-12-10T15:34:15;41.15;;;23.35;;
33954;SDS011;20233;50.804;7.126;2022-12-10T15:36:49;45.45;;;24.95;;
33954;SDS011;20233;50.804;7.126;2022-12-10T15:41:50;46.50;;;25.00;;
33954;SDS011;20233;50.804;7.126;2022-12-10T15:44:25;40.83;;;22.75;;
33954;SDS011;20233;50.804;7.126;2022-12-10T15:47:08;45.53;;;24.98;;
33954;SDS011;20233;50.804;7.126;2022-12-10T15:49:48;47.45;;;25.00;;
33954;SDS011;20233;50.804;7.126;2022-12-10T15:52:17;46.22;;;26.23;;
33954;SDS011;20233;50.804;7.126;2022-12-10T15:54:46;43.97;;;24.02;;
33954;SDS011;20233;50.804;7.126;2022-12-10T15:57:22;46.38;;;22.58;;
33954;SDS011;20233;50.804;7.126;2022-12-10T15:59:49;46.83;;;26.55;;
33954;SDS011;20233;50.804;7.126;2022-12-10T16:05:26;39.53;;;22.30;;
33954;SDS011;20233;50.804;7.126;2022-12-10T16:07:55;41.50;;;23.77;;
33954;SDS011;20233;50.804;7.126;2022-12-10T16:10:24;42.33;;;22.63;;
33954;SDS011;20233;50.804;7.126;2022-12-10T16:12:57;41.13;;;22.20;;
33954;SDS011;20233;50.804;7.126;2022-12-10T16:15:28;44.72;;;23.35;;
33954;SDS011;20233;50.804;7.126;2022-12-10T16:18:02;43.92;;;23.67;;
33954;SDS011;20233;50.804;7.126;2022-12-10T16:20:30;41.13;;;22.90;;
33954;SDS011;20233;50.804;7.126;2022-12-10T16:22:58;43.42;;;22.98;;
33954;SDS011;20233;50.804;7.126;2022-12-10T16:25:26;42.38;;;22.85;;
33954;SDS011;20233;50.804;7.126;2022-12-10T16:27:55;48.08;;;26.23;;
33954;SDS011;20233;50.804;7.126;2022-12-10T16:30:36;46.05;;;24.38;;
33954;SDS011;20233;50.804;7.126;2022-12-10T16:33:06;45.42;;;24.45;;
33954;SDS011;20233;50.804;7.126;2022-12-10T16:35:32;42.55;;;23.45;;
33954;SDS011;20233;50.804;7.126;2022-12-10T16:37:59;46.50;;;25.38;;
33954;SDS011;20233;50.804;7.126;2022-12-10T16:40:26;44.55;;;24.80;;
33954;SDS011;20233;50.804;7.126;2022-12-10T16:42:54;42.28;;;25.63;;
33954;SDS011;20233;50.804;7.126;2022-12-10T16:45:22;46.83;;;24.00;;
33954;SDS011;20233;50.804;7.126;2022-12-10T16:47:52;47.88;;;27.23;;
33954;SDS011;20233;50.804;7.126;2022-12-10T16:50:19;42.35;;;22.70;;
33954;SDS011;20233;50.804;7.126;2022-12-10T16:52:47;42.30;;;23.95;;